Raytown, Texas
Current Conditions -  °F | °C
As of 6:35 AM on Monday 22 Dec 2014 (Local Time) from KSWW Reporting Station
Clear Clear  
Wind Chill: 52°   Ceiling: Unl
Heat Index: 52°   Visibility: 10mi
Dew Point: 31°   Wind: 13mph
Humidity: 45%   Direction: 240°WSW
Pressure: 29.68"   Gusts: NA
Location:  32.8661°N, 100.503°W
Report Text: KSWW 221235Z AUTO 24011KT 10SM CLR 11/00 A2968 RMK AO2 T01101005
Loading
Personal Weather Stations






























Interactive Weather Map New forecast layout! Learn more

10-Day Weather Forecast

Advertisements
Track Severe Weather on mobile